createdAt,value
2024-04-18T00:02:01.116Z,100.00
2024-04-18T00:04:27.651Z,100.00
2024-04-18T00:06:54.092Z,100.00
2024-04-18T00:09:20.436Z,100.00
2024-04-18T00:11:48.050Z,100.00
2024-04-18T00:14:14.561Z,100.00
2024-04-18T00:16:41.140Z,100.00
2024-04-18T00:19:08.216Z,100.00
2024-04-18T00:21:34.775Z,100.00
2024-04-18T00:24:01.182Z,100.00
2024-04-18T00:26:27.534Z,100.00
2024-04-18T00:28:53.865Z,100.00
2024-04-18T00:31:20.222Z,100.00
2024-04-18T00:33:46.565Z,100.00
2024-04-18T00:36:12.981Z,100.00
2024-04-18T00:38:39.314Z,100.00
2024-04-18T00:41:05.648Z,100.00
2024-04-18T00:43:31.982Z,100.00
2024-04-18T00:45:58.324Z,100.00
2024-04-18T00:48:24.775Z,100.00
2024-04-18T00:50:51.105Z,100.00
2024-04-18T00:53:17.408Z,100.00
2024-04-18T00:55:43.743Z,100.00
2024-04-18T00:58:10.052Z,100.00
2024-04-18T01:00:36.432Z,100.00
2024-04-18T01:03:02.851Z,100.00
2024-04-18T01:05:29.380Z,100.00
2024-04-18T01:07:55.850Z,100.00
2024-04-18T01:10:22.280Z,100.00
2024-04-18T01:12:48.855Z,100.00
2024-04-18T01:15:15.293Z,100.00
2024-04-18T01:17:41.803Z,100.00
2024-04-18T01:20:09.636Z,100.00
2024-04-18T01:22:37.146Z,100.00
2024-04-18T01:25:03.660Z,100.00
2024-04-18T01:27:30.196Z,100.00
2024-04-18T01:32:40.460Z,100.00
2024-04-18T01:35:06.935Z,100.00
2024-04-18T01:37:33.496Z,100.00
2024-04-18T01:40:00.034Z,100.00
2024-04-18T01:42:26.730Z,100.00
2024-04-18T01:44:53.142Z,100.00
2024-04-18T01:47:19.703Z,100.00
2024-04-18T01:49:47.588Z,100.00
2024-04-18T01:52:14.069Z,100.00
2024-04-18T01:57:23.728Z,100.00
2024-04-18T01:59:50.268Z,100.00
2024-04-18T02:02:16.617Z,100.00
2024-04-18T02:04:43.129Z,100.00
2024-04-18T02:07:12.365Z,100.00
2024-04-18T02:09:40.104Z,100.00
2024-04-18T02:12:09.279Z,100.00
2024-04-18T02:14:35.654Z,100.00
2024-04-18T02:17:02.211Z,100.00
2024-04-18T02:19:29.746Z,100.00
2024-04-18T02:22:00.253Z,100.00
2024-04-18T02:24:29.769Z,100.00
2024-04-18T02:27:03.800Z,100.00
2024-04-18T02:46:28.811Z,100.00
2024-04-18T03:00:14.944Z,100.00
2024-04-18T03:03:19.686Z,100.00
2024-04-18T03:16:51.042Z,100.00
2024-04-18T03:19:21.610Z,100.00
2024-04-18T03:22:12.713Z,100.00
2024-04-18T03:24:39.109Z,100.00
2024-04-18T03:27:06.911Z,100.00
2024-04-18T03:29:40.173Z,100.00
2024-04-18T03:32:06.859Z,100.00
2024-04-18T03:34:34.388Z,100.00
2024-04-18T03:37:11.024Z,100.00
2024-04-18T03:39:37.667Z,100.00
2024-04-18T03:42:11.478Z,100.00
2024-04-18T03:44:53.640Z,100.00
2024-04-18T03:47:29.948Z,100.00
2024-04-18T03:49:56.502Z,100.00
2024-04-18T03:52:50.987Z,100.00
2024-04-18T03:55:19.695Z,100.00
2024-04-18T04:11:45.091Z,100.00
2024-04-18T04:14:15.787Z,100.00
2024-04-18T04:16:46.551Z,100.00
2024-04-18T04:19:19.028Z,100.00
2024-04-18T04:21:46.064Z,100.00
2024-04-18T04:24:14.289Z,100.00
2024-04-18T04:26:42.035Z,100.00
2024-04-18T04:29:08.754Z,100.00
2024-04-18T04:31:37.595Z,100.00
2024-04-18T04:34:03.934Z,100.00
2024-04-18T04:36:30.304Z,100.00
2024-04-18T04:38:56.656Z,100.00
2024-04-18T04:41:22.941Z,100.00
2024-04-18T04:43:49.246Z,100.00
2024-04-18T04:46:15.569Z,100.00
2024-04-18T04:48:41.917Z,100.00
2024-04-18T04:51:08.283Z,100.00
2024-04-18T04:53:34.652Z,100.00
2024-04-18T04:56:01.041Z,100.00
2024-04-18T04:58:27.329Z,100.00
2024-04-18T05:00:53.898Z,100.00
2024-04-18T05:03:20.369Z,100.00
2024-04-18T05:05:46.727Z,100.00
2024-04-18T05:08:13.049Z,100.00
2024-04-18T05:10:39.368Z,100.00
2024-04-18T05:13:05.680Z,100.00
2024-04-18T05:15:32.040Z,100.00
2024-04-18T05:17:58.487Z,100.00
2024-04-18T05:20:24.802Z,100.00
2024-04-18T05:22:51.142Z,100.00
2024-04-18T05:25:17.440Z,100.00
2024-04-18T05:27:43.838Z,100.00
2024-04-18T05:30:10.190Z,100.00
2024-04-18T05:32:36.519Z,100.00
2024-04-18T05:35:03.538Z,100.00
2024-04-18T05:37:29.988Z,100.00
2024-04-18T05:39:56.406Z,100.00
2024-04-18T05:42:22.812Z,100.00
2024-04-18T05:44:49.174Z,100.00
2024-04-18T05:47:15.600Z,100.00
2024-04-18T05:49:41.995Z,100.00
2024-04-18T05:52:08.299Z,100.00
2024-04-18T05:54:34.637Z,100.00
2024-04-18T05:57:01.090Z,100.00
2024-04-18T05:59:27.782Z,100.00
2024-04-18T06:01:54.387Z,100.00
2024-04-18T06:04:20.746Z,100.00
2024-04-18T06:06:47.229Z,100.00
2024-04-18T06:09:13.604Z,100.00
2024-04-18T06:11:39.965Z,100.00
2024-04-18T06:14:06.294Z,100.00
2024-04-18T06:16:32.647Z,100.00
2024-04-18T06:18:59.073Z,100.00
2024-04-18T06:21:25.373Z,100.00
2024-04-18T06:23:51.679Z,100.00
2024-04-18T06:26:18.013Z,100.00
2024-04-18T06:28:44.309Z,100.00
2024-04-18T06:31:11.728Z,100.00
2024-04-18T06:33:38.501Z,100.00
2024-04-18T06:36:04.940Z,100.00
2024-04-18T06:38:31.232Z,100.00
2024-04-18T06:40:57.573Z,100.00
2024-04-18T06:43:25.117Z,100.00
2024-04-18T06:45:51.611Z,100.00
2024-04-18T06:48:18.116Z,100.00
2024-04-18T06:50:44.452Z,100.00
2024-04-18T06:53:10.816Z,100.00
2024-04-18T06:55:37.111Z,100.00
2024-04-18T06:58:03.474Z,100.00
2024-04-18T07:00:29.979Z,100.00
2024-04-18T07:02:56.369Z,100.00
2024-04-18T07:05:22.713Z,100.00
2024-04-18T07:07:49.034Z,100.00
2024-04-18T07:10:15.323Z,100.00
2024-04-18T07:12:41.739Z,100.00
2024-04-18T07:15:08.153Z,100.00
2024-04-18T07:17:34.665Z,100.00
2024-04-18T07:20:01.095Z,100.00
2024-04-18T07:22:27.429Z,100.00
2024-04-18T07:24:53.775Z,100.00
2024-04-18T07:27:20.180Z,100.00
2024-04-18T07:29:46.515Z,100.00
2024-04-18T07:32:12.868Z,100.00
2024-04-18T07:34:39.176Z,100.00
2024-04-18T07:37:05.527Z,100.00
2024-04-18T07:39:31.924Z,100.00
2024-04-18T07:41:58.289Z,100.00
2024-04-18T07:44:25.232Z,100.00
2024-04-18T07:46:51.647Z,100.00
2024-04-18T07:49:18.026Z,100.00
2024-04-18T07:51:45.042Z,100.00
2024-04-18T07:54:12.341Z,100.00
2024-04-18T07:56:38.900Z,100.00
2024-04-18T07:59:06.079Z,100.00
2024-04-18T08:01:35.161Z,100.00
2024-04-18T08:04:17.822Z,100.00
2024-04-18T08:06:51.055Z,100.00
2024-04-18T08:09:21.973Z,100.00
2024-04-18T08:14:22.718Z,100.00
2024-04-18T08:16:52.498Z,100.00
2024-04-18T08:19:18.973Z,100.00
2024-04-18T08:21:45.301Z,100.00
2024-04-18T08:24:11.629Z,100.00
2024-04-18T08:26:37.958Z,100.00
2024-04-18T08:29:04.295Z,100.00
2024-04-18T08:31:30.665Z,100.00
2024-04-18T08:34:02.243Z,100.00
2024-04-18T08:36:33.618Z,100.00
2024-04-18T08:39:00.034Z,100.00
2024-04-18T08:41:26.355Z,100.00
2024-04-18T08:43:57.234Z,100.00
2024-04-18T08:46:23.841Z,100.00
2024-04-18T08:48:50.223Z,100.00
2024-04-18T08:51:16.743Z,100.00
2024-04-18T08:53:43.083Z,100.00
2024-04-18T08:56:09.387Z,100.00
2024-04-18T08:58:35.719Z,100.00
2024-04-18T09:01:02.051Z,100.00
2024-04-18T09:03:28.402Z,100.00
2024-04-18T09:05:54.770Z,100.00
2024-04-18T09:08:21.080Z,100.00
2024-04-18T09:10:47.446Z,100.00
2024-04-18T09:13:13.782Z,100.00
2024-04-18T09:15:40.138Z,100.00
2024-04-18T09:18:06.537Z,100.00
2024-04-18T09:20:32.979Z,100.00
2024-04-18T09:22:59.308Z,100.00
2024-04-18T09:25:25.651Z,100.00
2024-04-18T09:27:51.964Z,100.00
2024-04-18T09:30:18.390Z,100.00
2024-04-18T09:32:44.901Z,100.00
2024-04-18T09:35:11.259Z,100.00
2024-04-18T09:37:37.894Z,100.00
2024-04-18T09:40:04.276Z,100.00
2024-04-18T09:42:30.627Z,100.00
2024-04-18T09:44:56.984Z,100.00
2024-04-18T09:47:23.302Z,100.00
2024-04-18T09:49:51.125Z,100.00
2024-04-18T09:52:17.589Z,100.00
2024-04-18T09:54:43.972Z,100.00
2024-04-18T09:57:10.350Z,100.00
2024-04-18T09:59:36.773Z,100.00
2024-04-18T10:02:03.730Z,100.00
2024-04-18T10:04:30.781Z,100.00
2024-04-18T10:06:57.109Z,100.00
2024-04-18T10:09:23.566Z,100.00
2024-04-18T10:11:49.953Z,100.00
2024-04-18T10:14:16.362Z,100.00
2024-04-18T10:16:42.786Z,100.00
2024-04-18T10:19:09.191Z,100.00
2024-04-18T10:21:43.197Z,100.00
2024-04-18T10:24:19.476Z,100.00
2024-04-18T10:26:45.838Z,100.00
2024-04-18T10:29:12.253Z,100.00
2024-04-18T10:31:38.633Z,100.00
2024-04-18T10:34:05.047Z,100.00
2024-04-18T10:36:31.452Z,100.00
2024-04-18T10:38:58.239Z,100.00
2024-04-18T10:41:24.691Z,100.00
2024-04-18T10:43:51.001Z,100.00
2024-04-18T10:46:19.867Z,100.00
2024-04-18T10:48:46.371Z,100.00
2024-04-18T10:51:12.731Z,100.00
2024-04-18T10:53:39.076Z,100.00
2024-04-18T10:56:05.390Z,100.00
2024-04-18T10:58:31.766Z,100.00
2024-04-18T11:00:58.121Z,100.00
2024-04-18T11:03:24.516Z,100.00
2024-04-18T11:05:50.893Z,100.00
2024-04-18T11:08:17.202Z,100.00
2024-04-18T11:10:43.654Z,100.00
2024-04-18T11:13:10.122Z,100.00
2024-04-18T11:15:36.478Z,100.00
2024-04-18T11:18:03.030Z,100.00
2024-04-18T11:20:30.791Z,100.00
2024-04-18T11:23:05.158Z,100.00
2024-04-18T11:25:35.553Z,100.00
2024-04-18T11:28:01.850Z,100.00
2024-04-18T11:30:28.229Z,100.00
2024-04-18T11:32:54.615Z,100.00
2024-04-18T11:35:20.941Z,100.00
2024-04-18T11:37:47.273Z,100.00
2024-04-18T11:40:13.576Z,100.00
2024-04-18T11:42:47.557Z,100.00
2024-04-18T11:45:13.994Z,100.00
2024-04-18T11:47:40.571Z,100.00
2024-04-18T11:50:06.970Z,100.00
2024-04-18T11:52:33.261Z,100.00
2024-04-18T11:54:59.609Z,100.00
2024-04-18T11:57:25.958Z,100.00
2024-04-18T11:59:52.332Z,100.00
2024-04-18T12:02:18.649Z,100.00
2024-04-18T12:04:45.033Z,100.00
2024-04-18T12:07:11.421Z,100.00
2024-04-18T12:09:37.994Z,100.00
2024-04-18T12:12:04.649Z,100.00
2024-04-18T12:14:41.701Z,100.00
2024-04-18T12:17:08.068Z,100.00
2024-04-18T12:19:34.405Z,100.00
2024-04-18T12:22:00.731Z,100.00
2024-04-18T12:24:27.106Z,100.00
2024-04-18T12:26:53.474Z,100.00
2024-04-18T12:29:19.833Z,100.00
2024-04-18T12:31:46.126Z,100.00
2024-04-18T12:34:12.477Z,100.00
2024-04-18T12:36:38.806Z,100.00
2024-04-18T12:39:07.316Z,100.00
2024-04-18T12:41:33.867Z,100.00
2024-04-18T12:44:00.228Z,100.00
2024-04-18T12:46:26.735Z,100.00
2024-04-18T12:48:53.521Z,100.00
2024-04-18T12:51:20.156Z,100.00
2024-04-18T12:53:46.508Z,100.00
2024-04-18T12:56:12.827Z,100.00
2024-04-18T12:58:40.869Z,100.00
2024-04-18T13:01:07.548Z,100.00
2024-04-18T13:03:33.985Z,100.00
2024-04-18T13:06:00.415Z,100.00
2024-04-18T13:08:26.760Z,100.00
2024-04-18T13:10:53.132Z,100.00
2024-04-18T13:13:19.485Z,100.00
2024-04-18T13:15:46.334Z,100.00
2024-04-18T13:18:13.402Z,100.00
2024-04-18T13:20:39.733Z,100.00
2024-04-18T13:23:06.137Z,100.00
2024-04-18T13:25:32.423Z,100.00
2024-04-18T13:28:00.117Z,100.00
2024-04-18T13:30:26.630Z,100.00
2024-04-18T13:32:53.061Z,100.00
2024-04-18T13:35:19.440Z,100.00
2024-04-18T13:37:45.856Z,100.00
2024-04-18T13:40:12.136Z,100.00
2024-04-18T13:42:38.509Z,100.00
2024-04-18T13:45:04.929Z,100.00
2024-04-18T13:47:31.279Z,100.00
2024-04-18T13:49:57.624Z,100.00
2024-04-18T13:52:23.958Z,100.00
2024-04-18T13:54:50.279Z,100.00
2024-04-18T13:57:16.647Z,100.00
2024-04-18T13:59:43.002Z,100.00
2024-04-18T14:02:09.313Z,100.00
2024-04-18T14:04:35.680Z,100.00
2024-04-18T14:07:02.038Z,100.00
2024-04-18T14:09:28.407Z,100.00
2024-04-18T14:11:54.731Z,100.00
2024-04-18T14:14:21.038Z,100.00
2024-04-18T14:16:47.503Z,100.00
2024-04-18T14:19:13.892Z,100.00
2024-04-18T14:21:40.262Z,100.00
2024-04-18T14:24:06.625Z,100.00
2024-04-18T14:26:32.987Z,100.00
2024-04-18T14:28:59.298Z,100.00
2024-04-18T14:31:25.637Z,100.00
2024-04-18T14:33:52.071Z,100.00
2024-04-18T14:36:18.549Z,100.00
2024-04-18T14:38:45.016Z,100.00
2024-04-18T14:41:12.615Z,100.00
2024-04-18T14:43:39.371Z,100.00
2024-04-18T14:46:05.770Z,100.00
2024-04-18T14:48:32.183Z,100.00
2024-04-18T14:50:58.516Z,100.00
2024-04-18T14:53:26.780Z,100.00
2024-04-18T14:55:53.816Z,100.00
2024-04-18T14:58:20.121Z,100.00
2024-04-18T15:00:46.542Z,100.00
2024-04-18T15:03:12.983Z,100.00
2024-04-18T15:05:39.313Z,100.00
2024-04-18T15:08:05.658Z,100.00
2024-04-18T15:10:31.949Z,100.00
2024-04-18T15:12:58.260Z,100.00
2024-04-18T15:15:25.635Z,100.00
2024-04-18T15:17:52.076Z,100.00
2024-04-18T15:20:18.479Z,100.00
2024-04-18T15:22:44.783Z,100.00
2024-04-18T15:25:11.090Z,100.00
2024-04-18T15:27:37.432Z,100.00
2024-04-18T15:30:03.810Z,100.00
2024-04-18T15:32:30.207Z,99.81
2024-04-18T15:34:56.516Z,91.85
2024-04-18T15:37:22.843Z,92.16
2024-04-18T15:39:49.131Z,89.67
2024-04-18T15:42:15.442Z,73.67
2024-04-18T15:44:41.822Z,66.64
2024-04-18T15:47:08.195Z,63.44
2024-04-18T15:49:34.552Z,62.71
2024-04-18T15:52:00.871Z,62.50
2024-04-18T15:54:27.235Z,57.02
2024-04-18T15:56:53.565Z,59.82
2024-04-18T15:59:19.888Z,57.94
2024-04-18T16:01:46.204Z,60.28
2024-04-18T16:04:12.645Z,56.76
2024-04-18T16:06:39.052Z,60.55
2024-04-18T16:09:05.507Z,60.51
2024-04-18T16:11:31.900Z,61.39
2024-04-18T16:13:58.219Z,63.90
2024-04-18T16:16:24.538Z,65.22
2024-04-18T16:18:50.871Z,64.38
2024-04-18T16:21:17.228Z,72.82
2024-04-18T16:23:43.542Z,73.76
2024-04-18T16:26:09.874Z,70.02
2024-04-18T16:28:36.196Z,69.99
2024-04-18T16:31:02.574Z,71.52
2024-04-18T16:33:28.952Z,76.29
2024-04-18T16:35:55.287Z,86.38
2024-04-18T16:38:21.601Z,91.35
2024-04-18T16:40:47.897Z,96.82
2024-04-18T16:43:14.246Z,100.00
2024-04-18T16:45:40.583Z,100.00
2024-04-18T16:48:07.063Z,100.00
2024-04-18T16:50:33.439Z,100.00
2024-04-18T16:52:59.790Z,100.00
2024-04-18T16:55:26.074Z,100.00
2024-04-18T16:57:52.392Z,100.00
2024-04-18T17:00:18.768Z,100.00
2024-04-18T17:02:45.219Z,100.00
2024-04-18T17:05:11.535Z,100.00
2024-04-18T17:07:37.858Z,100.00
2024-04-18T17:10:04.243Z,100.00
2024-04-18T17:12:30.641Z,100.00
2024-04-18T17:14:57.041Z,100.00
2024-04-18T17:17:23.436Z,100.00
2024-04-18T17:19:49.813Z,100.00
2024-04-18T17:22:16.144Z,100.00
2024-04-18T17:24:42.821Z,100.00
2024-04-18T17:27:09.989Z,100.00
2024-04-18T17:29:36.313Z,100.00
2024-04-18T17:32:02.644Z,100.00
2024-04-18T17:34:28.941Z,100.00
2024-04-18T17:36:55.259Z,100.00
2024-04-18T17:39:21.659Z,100.00
2024-04-18T17:41:48.001Z,100.00
2024-04-18T17:44:14.453Z,100.00
2024-04-18T17:46:40.796Z,100.00
2024-04-18T17:49:07.198Z,100.00
2024-04-18T17:51:33.598Z,100.00
2024-04-18T17:53:59.953Z,100.00
2024-04-18T17:56:26.295Z,100.00
2024-04-18T17:58:52.628Z,100.00
2024-04-18T18:01:19.046Z,100.00
2024-04-18T18:03:45.479Z,100.00
2024-04-18T18:06:11.994Z,100.00
2024-04-18T18:08:38.317Z,100.00
2024-04-18T18:11:04.680Z,100.00
2024-04-18T18:13:31.022Z,100.00
2024-04-18T18:15:57.370Z,100.00
2024-04-18T18:18:23.883Z,100.00
2024-04-18T18:20:50.271Z,100.00
2024-04-18T18:23:16.919Z,100.00
2024-04-18T18:25:43.315Z,100.00
2024-04-18T18:28:09.634Z,100.00
2024-04-18T18:30:36.039Z,100.00
2024-04-18T18:33:02.440Z,100.00
2024-04-18T18:35:28.748Z,100.00
2024-04-18T18:37:55.095Z,100.00
2024-04-18T18:40:21.474Z,100.00
2024-04-18T18:42:47.793Z,100.00
2024-04-18T18:45:15.993Z,100.00
2024-04-18T18:47:43.467Z,100.00
2024-04-18T18:50:09.869Z,100.00
2024-04-18T18:52:36.171Z,100.00
2024-04-18T18:55:03.206Z,100.00
2024-04-18T18:57:29.693Z,100.00
2024-04-18T18:59:56.109Z,100.00
2024-04-18T19:02:29.627Z,100.00
2024-04-18T19:04:56.445Z,100.00
2024-04-18T19:07:22.780Z,100.00
2024-04-18T19:09:49.209Z,100.00
2024-04-18T19:12:15.607Z,100.00
2024-04-18T19:14:41.945Z,100.00
2024-04-18T19:17:08.673Z,100.00
2024-04-18T19:19:36.162Z,100.00
2024-04-18T19:22:04.516Z,100.00
2024-04-18T19:24:30.903Z,100.00
2024-04-18T19:26:57.235Z,100.00
2024-04-18T19:29:31.778Z,100.00
2024-04-18T19:32:06.219Z,100.00
2024-04-18T19:34:32.596Z,100.00
2024-04-18T19:36:58.925Z,100.00
2024-04-18T19:39:25.560Z,100.00
2024-04-18T19:41:51.915Z,100.00
2024-04-18T19:44:18.390Z,100.00
2024-04-18T19:46:44.806Z,100.00
2024-04-18T19:49:11.747Z,100.00
2024-04-18T19:51:38.181Z,100.00
2024-04-18T19:54:05.219Z,100.00
2024-04-18T19:56:31.626Z,100.00
2024-04-18T19:58:58.517Z,100.00
2024-04-18T20:01:24.961Z,100.00
2024-04-18T20:03:51.710Z,100.00
2024-04-18T20:06:18.218Z,100.00
2024-04-18T20:08:48.230Z,100.00
2024-04-18T20:11:16.494Z,100.00
2024-04-18T20:13:44.073Z,100.00
2024-04-18T20:16:10.389Z,100.00
2024-04-18T20:18:36.879Z,100.00
2024-04-18T20:21:05.363Z,100.00
2024-04-18T20:23:31.717Z,100.00
2024-04-18T20:25:58.051Z,100.00
2024-04-18T20:28:32.886Z,100.00
2024-04-18T20:30:59.576Z,100.00
2024-04-18T20:33:29.085Z,100.00
2024-04-18T20:35:55.501Z,100.00
2024-04-18T20:38:24.954Z,100.00
2024-04-18T20:40:51.418Z,100.00
2024-04-18T20:43:17.889Z,100.00
2024-04-18T20:45:44.205Z,100.00
2024-04-18T20:48:10.686Z,100.00
2024-04-18T20:50:37.085Z,100.00
2024-04-18T20:53:03.599Z,100.00
2024-04-18T20:55:32.918Z,100.00
2024-04-18T20:57:59.352Z,100.00
2024-04-18T21:00:28.912Z,100.00
2024-04-18T21:02:55.394Z,100.00
2024-04-18T21:05:21.722Z,100.00
2024-04-18T21:07:48.067Z,100.00
2024-04-18T21:10:14.364Z,100.00
2024-04-18T21:12:40.697Z,100.00
2024-04-18T21:15:07.163Z,100.00
2024-04-18T21:17:33.633Z,100.00
2024-04-18T21:20:02.353Z,100.00
2024-04-18T21:22:28.701Z,100.00
2024-04-18T21:24:55.055Z,100.00
2024-04-18T21:27:21.412Z,100.00
2024-04-18T21:29:48.733Z,100.00
2024-04-18T21:32:15.060Z,100.00
2024-04-18T21:34:41.436Z,100.00
2024-04-18T21:37:07.747Z,100.00
2024-04-18T21:39:35.896Z,100.00
2024-04-18T21:42:03.463Z,100.00
2024-04-18T21:44:29.767Z,100.00
2024-04-18T21:46:56.091Z,100.00
2024-04-18T21:49:22.554Z,100.00
2024-04-18T21:51:51.237Z,100.00
2024-04-18T21:54:19.575Z,100.00
2024-04-18T21:56:45.933Z,100.00
2024-04-18T21:59:12.223Z,100.00
2024-04-18T22:01:38.550Z,100.00
2024-04-18T22:04:05.516Z,100.00
2024-04-18T22:06:31.929Z,100.00
2024-04-18T22:09:00.861Z,100.00
2024-04-18T22:11:27.221Z,100.00
2024-04-18T22:13:56.506Z,100.00
2024-04-18T22:16:22.813Z,100.00
2024-04-18T22:18:49.336Z,100.00
2024-04-18T22:21:15.774Z,100.00
2024-04-18T22:23:42.088Z,100.00
2024-04-18T22:26:08.397Z,100.00
2024-04-18T22:28:34.698Z,100.00
2024-04-18T22:31:01.008Z,100.00
2024-04-18T22:33:27.407Z,100.00
2024-04-18T22:35:53.765Z,100.00
2024-04-18T22:38:20.080Z,100.00
2024-04-18T22:40:46.398Z,100.00
2024-04-18T22:43:17.102Z,100.00
2024-04-18T22:45:43.456Z,100.00
2024-04-18T22:48:09.934Z,100.00
2024-04-18T22:50:36.309Z,100.00
2024-04-18T22:53:02.653Z,100.00
2024-04-18T22:55:28.983Z,100.00
2024-04-18T22:57:55.260Z,100.00
2024-04-18T23:00:21.595Z,100.00
2024-04-18T23:02:47.936Z,100.00
2024-04-18T23:05:14.238Z,100.00
2024-04-18T23:07:40.527Z,100.00
2024-04-18T23:10:06.868Z,100.00
2024-04-18T23:12:33.167Z,100.00
2024-04-18T23:14:59.505Z,100.00
2024-04-18T23:17:25.909Z,100.00
2024-04-18T23:19:52.263Z,100.00
2024-04-18T23:22:19.370Z,100.00
2024-04-18T23:24:45.698Z,100.00
2024-04-18T23:27:12.060Z,100.00
2024-04-18T23:29:38.402Z,100.00
2024-04-18T23:32:04.776Z,100.00
2024-04-18T23:34:31.117Z,100.00
2024-04-18T23:36:57.469Z,100.00
2024-04-18T23:39:23.856Z,100.00
2024-04-18T23:41:50.224Z,100.00
2024-04-18T23:44:16.520Z,100.00
2024-04-18T23:46:42.844Z,100.00
2024-04-18T23:49:09.167Z,100.00
2024-04-18T23:51:35.523Z,100.00
2024-04-18T23:54:01.853Z,100.00
2024-04-18T23:56:28.138Z,100.00
2024-04-18T23:58:54.484Z,100.00
